OK01 weather

Sky Haven Airpark/Sellmeyer Field
Vera, Oklahoma, United States

Public forecast

Using degrees Fahrenheit for public forecast. Weather courtesy of forecast.io.

METAR (pilot weather report)

Closest report is Tulsa International Airport, 13.9 nm (25.7 km) S. Retrieved 2019/04/24 16:53 UTC (31 minutes ago):

KTUL 241653Z 02003KT 7SM OVC011 15/12 A2992 RMK AO2 SLP127 T01500122

TAF (pilot weather forecast)

Closest forecast is Tulsa International Airport, 13.9 nm (25.7 km) S. Retrieved 2019/04/24 12:42 UTC (5 hours ago):

TAF KTUL 241140Z 2412/2512 31004KT P6SM SCT006 OVC012 TEMPO 2412/2415 5SM BR BKN006 FM241500 31005KT P6SM OVC015 FM242000 31006KT P6SM BKN035 FM250200 VRB03KT P6SM BKN250